Hanseatic Scout — V2BM2 — position and weather

sailwx.info

Track history (hours):
 
Tides and Currents Weather Stations Pressure Air Temp Water Temp Dewpoint Dewpoint Depression Visibility Wind Speed Wind Dir Waves Ship Positions

Hanseatic Scout

Last reported at 2014-Oct-23 21:31 UTC. Time now 2014-Oct-25 06:19 UTC.
Position N 38°41' W 009°41'.

Length 89 m; draft 3.8 m.

Type: Ship (hazmat cat C). MMSI: 304867000.

Date/timePositionNaut miles runAvg speedWind from/ knotsBaromVisibWave heightAir tempDewpointWater temp
2014-Oct-23 21:31N 38°41' W 009°41'7 7.7
2014-Oct-23 20:33N 38°38' W 009°33'8 8.4
2014-Oct-23 19:33N 38°38' W 009°22'1010.0
2014-Oct-23 18:34N 38°42' W 009°10'4 3.9
2014-Oct-23 17:34N 38°44' W 009°06'0 0.0
2014-Oct-23 16:33N 38°44' W 009°06'0 0.0
2014-Oct-23 15:33N 38°44' W 009°06'0 0.0
2014-Oct-23 14:33N 38°44' W 009°06'0 0.0
2014-Oct-23 13:33N 38°44' W 009°06'0 0.0
2014-Oct-23 12:33N 38°44' W 009°06'0 0.0
2014-Oct-23 11:33N 38°44' W 009°06'0 0.0
2014-Oct-23 10:30N 38°44' W 009°06'0 0.0
2014-Oct-23 09:33N 38°44' W 009°06'0 0.0
2014-Oct-23 08:30N 38°44' W 009°06'0 0.0
2014-Oct-23 07:30N 38°44' W 009°06'0 0.0
2014-Oct-23 06:32N 38°44' W 009°06'0 0.0
2014-Oct-23 05:32N 38°44' W 009°06'0 0.0
2014-Oct-23 04:32N 38°44' W 009°06'0 0.0
2014-Oct-23 03:26N 38°44' W 009°06'0 0.0
2014-Oct-23 02:32N 38°44' W 009°06'0 0.0
2014-Oct-23 01:29N 38°44' W 009°06'0 0.0
2014-Oct-23 00:33N 38°44' W 009°06'0 0.0
2014-Oct-22 23:30N 38°44' W 009°06'0 0.0
2014-Oct-22 22:33N 38°44' W 009°06'0 0.0
2014-Oct-22 21:33N 38°44' W 009°06'0 0.0
2014-Oct-22 20:33N 38°44' W 009°06'0 0.0
2014-Oct-22 19:33N 38°44' W 009°06'0 0.0
2014-Oct-22 18:33N 38°44' W 009°06'0 0.0
2014-Oct-22 17:33N 38°44' W 009°06'0 0.0
2014-Oct-22 15:33N 38°44' W 009°06'0 0.0
2014-Oct-22 14:33N 38°44' W 009°06'0 0.0
2014-Oct-22 13:33N 38°44' W 009°06'0 0.0
2014-Oct-22 12:33N 38°44' W 009°06'0 0.0
2014-Oct-22 11:30N 38°44' W 009°06'0 0.0
2014-Oct-22 10:33N 38°44' W 009°06'1 1.0
2014-Oct-22 09:33N 38°43' W 009°07'9 8.9
2014-Oct-22 08:33N 38°41' W 009°18'9 8.9
2014-Oct-22 07:34N 38°37' W 009°28'1010.1
2014-Oct-22 06:33N 38°36' W 009°41'1110.5
2014-Oct-22 05:32N 38°36' W 009°54'8 8.4
2014-Oct-22 04:33N 38°38' W 010°04'9 9.4
2014-Oct-22 03:33N 38°48' W 010°06'10 9.6
2014-Oct-22 02:33N 38°57' W 010°06'10 9.8
2014-Oct-22 01:33N 39°07' W 010°06'10 9.7
2014-Oct-22 00:33N 39°17' W 010°06'10 9.8
2014-Oct-21 23:33N 39°27' W 010°06'10 9.5
2014-Oct-21 22:33N 39°36' W 010°05'10 9.7
2014-Oct-21 21:33N 39°46' W 010°05'10 9.7
2014-Oct-21 20:33N 39°55' W 010°06'1110.0
2014-Oct-21 19:28N 40°06' W 010°06'  
2014-Oct-17 22:11N 50°53' E 001°07'6 9.5
2014-Oct-17 21:33N 50°57' E 001°14'9 9.0
2014-Oct-17 20:33N 51°02' E 001°24'9 8.5
2014-Oct-17 19:34N 51°08' E 001°35'8 8.1
2014-Oct-17 18:34N 51°13' E 001°45'9 8.7
2014-Oct-17 17:33N 51°21' E 001°51'9 9.5
2014-Oct-17 16:33N 51°29' E 001°59'1010.1
2014-Oct-17 15:33N 51°36' E 002°10'133 9.4
2014-Oct-17 01:27N 53°19' E 004°30'16 8.2
2014-Oct-16 23:30N 53°31' E 004°48'8 8.0
2014-Oct-16 22:33N 53°33' E 004°60'8 8.0
2014-Oct-16 21:33N 53°36' E 005°12'8 8.4
2014-Oct-16 20:34N 53°39' E 005°26'9 9.2
2014-Oct-16 19:33N 53°42' E 005°40'10 9.7
2014-Oct-16 18:33N 53°45' E 005°56'10 9.8
2014-Oct-16 17:29N 53°48' E 006°12'46 9.2
2014-Oct-16 12:30N 53°60' E 007°28'9 9.3
2014-Oct-16 11:34N 54°02' E 007°43'10 9.8
2014-Oct-16 10:33N 54°01' E 007°60'1010.1
2014-Oct-16 09:33N 54°00' E 008°17'1212.1
2014-Oct-16 08:34N 53°58' E 008°37'1111.3
2014-Oct-16 07:33N 53°50' E 008°51'10 9.8
2014-Oct-16 06:34N 53°53' E 009°07'1 1.3
2014-Oct-16 05:33N 53°54' E 009°09'7 7.5
2014-Oct-16 04:33N 53°60' E 009°17'8 8.1
2014-Oct-16 03:33N 54°08' E 009°20'4 4.1
2014-Oct-16 02:33N 54°10' E 009°25'8 7.7
2014-Oct-16 01:33N 54°14' E 009°36'7 6.7
2014-Oct-16 00:33N 54°20' E 009°43'6 6.4
2014-Oct-15 23:33N 54°21' E 009°54'6 6.5
2014-Oct-15 22:33N 54°22' E 010°05'2 2.3
2014-Oct-15 21:33N 54°22' E 010°09'4 3.7
2014-Oct-15 20:33N 54°25' E 010°12'9 9.2
2014-Oct-15 19:33N 54°32' E 010°23'10 9.9
2014-Oct-15 18:33N 54°35' E 010°40'1010.1
2014-Oct-15 17:33N 54°36' E 010°57'2110.4
2014-Oct-15 15:32N 54°30' E 011°32'1010.5
2014-Oct-15 14:33N 54°27' E 011°49'1010.3
2014-Oct-15 13:33N 54°26' E 012°06'10 9.6
2014-Oct-15 12:32N 54°35' E 012°14'70 9.8
2014-Oct-15 05:26N 54°55' E 014°10'910.3
2014-Oct-15 04:33N 54°55' E 014°26'1010.3
2014-Oct-15 03:33N 54°55' E 014°44'1010.3
2014-Oct-15 02:33N 54°56' E 015°02'10 9.6
2014-Oct-15 01:33N 54°57' E 015°18'1010.0
2014-Oct-15 00:33N 55°03' E 015°33'  
Track history (hours):
 
Tides and Currents Weather Stations Pressure Air Temp Water Temp Dewpoint Dewpoint Depression Visibility Wind Speed Wind Dir Waves Ship Positions

Hanseatic Scout

Last reported at 2014-Oct-23 21:31 UTC. Time now 2014-Oct-25 06:19 UTC.
Position N 38°41' W 009°41'.

Length 89 m; draft 3.8 m.

Type: Ship (hazmat cat C). MMSI: 304867000.

Date/timePositionNaut miles runAvg speedWind from/ knotsBaromVisibWave heightAir tempDewpointWater temp
2014-Oct-23 21:31N 38°41' W 009°41'7 7.7
2014-Oct-23 20:33N 38°38' W 009°33'8 8.4
2014-Oct-23 19:33N 38°38' W 009°22'1010.0
2014-Oct-23 18:34N 38°42' W 009°10'4 3.9
2014-Oct-23 17:34N 38°44' W 009°06'0 0.0
2014-Oct-23 16:33N 38°44' W 009°06'0 0.0
2014-Oct-23 15:33N 38°44' W 009°06'0 0.0
2014-Oct-23 14:33N 38°44' W 009°06'0 0.0
2014-Oct-23 13:33N 38°44' W 009°06'0 0.0
2014-Oct-23 12:33N 38°44' W 009°06'0 0.0
2014-Oct-23 11:33N 38°44' W 009°06'0 0.0
2014-Oct-23 10:30N 38°44' W 009°06'0 0.0
2014-Oct-23 09:33N 38°44' W 009°06'0 0.0
2014-Oct-23 08:30N 38°44' W 009°06'0 0.0
2014-Oct-23 07:30N 38°44' W 009°06'0 0.0
2014-Oct-23 06:32N 38°44' W 009°06'0 0.0
2014-Oct-23 05:32N 38°44' W 009°06'0 0.0
2014-Oct-23 04:32N 38°44' W 009°06'0 0.0
2014-Oct-23 03:26N 38°44' W 009°06'0 0.0
2014-Oct-23 02:32N 38°44' W 009°06'0 0.0
2014-Oct-23 01:29N 38°44' W 009°06'0 0.0
2014-Oct-23 00:33N 38°44' W 009°06'0 0.0
2014-Oct-22 23:30N 38°44' W 009°06'0 0.0
2014-Oct-22 22:33N 38°44' W 009°06'0 0.0
2014-Oct-22 21:33N 38°44' W 009°06'0 0.0
2014-Oct-22 20:33N 38°44' W 009°06'0 0.0
2014-Oct-22 19:33N 38°44' W 009°06'0 0.0
2014-Oct-22 18:33N 38°44' W 009°06'0 0.0
2014-Oct-22 17:33N 38°44' W 009°06'0 0.0
2014-Oct-22 15:33N 38°44' W 009°06'0 0.0
2014-Oct-22 14:33N 38°44' W 009°06'0 0.0
2014-Oct-22 13:33N 38°44' W 009°06'0 0.0
2014-Oct-22 12:33N 38°44' W 009°06'0 0.0
2014-Oct-22 11:30N 38°44' W 009°06'0 0.0
2014-Oct-22 10:33N 38°44' W 009°06'1 1.0
2014-Oct-22 09:33N 38°43' W 009°07'9 8.9
2014-Oct-22 08:33N 38°41' W 009°18'9 8.9
2014-Oct-22 07:34N 38°37' W 009°28'1010.1
2014-Oct-22 06:33N 38°36' W 009°41'1110.5
2014-Oct-22 05:32N 38°36' W 009°54'8 8.4
2014-Oct-22 04:33N 38°38' W 010°04'9 9.4
2014-Oct-22 03:33N 38°48' W 010°06'10 9.6
2014-Oct-22 02:33N 38°57' W 010°06'10 9.8
2014-Oct-22 01:33N 39°07' W 010°06'10 9.7
2014-Oct-22 00:33N 39°17' W 010°06'10 9.8
2014-Oct-21 23:33N 39°27' W 010°06'10 9.5
2014-Oct-21 22:33N 39°36' W 010°05'10 9.7
2014-Oct-21 21:33N 39°46' W 010°05'10 9.7
2014-Oct-21 20:33N 39°55' W 010°06'1110.0
2014-Oct-21 19:28N 40°06' W 010°06'  
2014-Oct-17 22:11N 50°53' E 001°07'6 9.5
2014-Oct-17 21:33N 50°57' E 001°14'9 9.0
2014-Oct-17 20:33N 51°02' E 001°24'9 8.5
2014-Oct-17 19:34N 51°08' E 001°35'8 8.1
2014-Oct-17 18:34N 51°13' E 001°45'9 8.7
2014-Oct-17 17:33N 51°21' E 001°51'9 9.5
2014-Oct-17 16:33N 51°29' E 001°59'1010.1
2014-Oct-17 15:33N 51°36' E 002°10'133 9.4
2014-Oct-17 01:27N 53°19' E 004°30'16 8.2
2014-Oct-16 23:30N 53°31' E 004°48'8 8.0
2014-Oct-16 22:33N 53°33' E 004°60'8 8.0
2014-Oct-16 21:33N 53°36' E 005°12'8 8.4
2014-Oct-16 20:34N 53°39' E 005°26'9 9.2
2014-Oct-16 19:33N 53°42' E 005°40'10 9.7
2014-Oct-16 18:33N 53°45' E 005°56'10 9.8
2014-Oct-16 17:29N 53°48' E 006°12'46 9.2
2014-Oct-16 12:30N 53°60' E 007°28'9 9.3
2014-Oct-16 11:34N 54°02' E 007°43'10 9.8
2014-Oct-16 10:33N 54°01' E 007°60'1010.1
2014-Oct-16 09:33N 54°00' E 008°17'1212.1
2014-Oct-16 08:34N 53°58' E 008°37'1111.3
2014-Oct-16 07:33N 53°50' E 008°51'10 9.8
2014-Oct-16 06:34N 53°53' E 009°07'1 1.3
2014-Oct-16 05:33N 53°54' E 009°09'7 7.5
2014-Oct-16 04:33N 53°60' E 009°17'8 8.1
2014-Oct-16 03:33N 54°08' E 009°20'4 4.1
2014-Oct-16 02:33N 54°10' E 009°25'8 7.7
2014-Oct-16 01:33N 54°14' E 009°36'7 6.7
2014-Oct-16 00:33N 54°20' E 009°43'6 6.4
2014-Oct-15 23:33N 54°21' E 009°54'6 6.5
2014-Oct-15 22:33N 54°22' E 010°05'2 2.3
2014-Oct-15 21:33N 54°22' E 010°09'4 3.7
2014-Oct-15 20:33N 54°25' E 010°12'9 9.2
2014-Oct-15 19:33N 54°32' E 010°23'10 9.9
2014-Oct-15 18:33N 54°35' E 010°40'1010.1
2014-Oct-15 17:33N 54°36' E 010°57'2110.4
2014-Oct-15 15:32N 54°30' E 011°32'1010.5
2014-Oct-15 14:33N 54°27' E 011°49'1010.3
2014-Oct-15 13:33N 54°26' E 012°06'10 9.6
2014-Oct-15 12:32N 54°35' E 012°14'70 9.8
2014-Oct-15 05:26N 54°55' E 014°10'910.3
2014-Oct-15 04:33N 54°55' E 014°26'1010.3
2014-Oct-15 03:33N 54°55' E 014°44'1010.3
2014-Oct-15 02:33N 54°56' E 015°02'10 9.6
2014-Oct-15 01:33N 54°57' E 015°18'1010.0
2014-Oct-15 00:33N 55°03' E 015°33'  

Dump ship's entire track history